Time;durP1;ratioP1;P1;durP2;ratioP2;P2;SDS_P1;SDS_P2;PMS_P1;PMS_P2;Temp;Humidity;BMP_temperature;BMP_pressure;BME280_temperature;BME280_humidity;BME280_pressure;Samples;Min_cycle;Max_cycle;Signal;HPM_P1;HPM_P2
2022/06/17 00:00:21;;;;;;;9.90;7.60;;;;;;;17.03;nan;63761.22;5105347;28;20240;-77
2022/06/17 00:02:47;;;;;;;13.80;8.90;;;;;;;16.96;85.24;63756.00;5105189;28;20216;-77
2022/06/17 00:05:14;;;;;;;10.38;9.35;;;;;;;16.95;86.14;63752.38;5105760;28;20219;-77
2022/06/17 00:07:43;;;;;;;10.52;8.60;;;;;;;16.93;86.68;63743.09;5105660;28;20204;-77
2022/06/17 00:10:19;;;;;;;12.32;9.93;;;;;;;16.87;87.05;63742.03;5105210;28;20235;-77
2022/06/17 00:12:47;;;;;;;10.30;9.25;;;;;;;16.91;87.07;63748.25;5105559;28;20361;-77
2022/06/17 00:15:14;;;;;;;12.70;10.30;;;;;;;16.87;87.55;63746.63;5105427;28;20228;-78
2022/06/17 00:17:44;;;;;;;10.65;9.63;;;;;;;16.86;88.36;63743.53;5104855;28;20234;-78
2022/06/17 00:20:15;;;;;;;11.65;9.32;;;;;;;16.89;87.61;63748.72;5105321;28;20215;-77
2022/06/17 00:22:43;;;;;;;12.40;10.30;;;;;;;16.87;88.32;63744.06;5105126;28;20203;-77
2022/06/17 00:25:20;;;;;;;11.57;9.80;;;;;;;16.83;86.71;63739.91;5105656;28;20226;-77
2022/06/17 00:27:48;;;;;;;12.32;11.13;;;;;;;16.76;88.14;63735.72;5105591;28;20210;-77
2022/06/17 00:30:18;;;;;;;12.27;11.00;;;;;;;16.80;88.39;63739.88;5105735;28;20211;-78
2022/06/17 00:32:51;;;;;;;12.63;11.32;;;;;;;16.67;89.33;63731.47;5107130;28;20195;-79
2022/06/17 00:35:22;;;;;;;11.77;10.63;;;;;;;16.47;90.09;63702.97;5111848;28;20224;-78
2022/06/17 00:37:55;;;;;;;10.38;9.38;;;;;;;16.41;90.65;63693.63;5110598;28;20226;-79
2022/06/17 00:40:26;;;;;;;12.10;11.00;;;;;;;16.44;91.64;63702.41;5108203;28;20283;-79
2022/06/17 00:42:55;;;;;;;11.90;10.73;;;;;;;16.43;92.60;63701.34;5106219;28;20214;-78
2022/06/17 00:45:29;;;;;;;16.52;12.10;;;;;;;16.47;94.98;63702.44;5105679;28;20531;-77
2022/06/17 00:48:03;;;;;;;15.75;12.98;;;;;;;16.45;95.98;63700.88;5104732;28;20223;-77
2022/06/17 00:50:36;;;;;;;14.23;11.93;;;;;;;16.43;96.23;63698.28;5105039;28;20227;-77
2022/06/17 00:53:17;;;;;;;13.85;12.20;;;;;;;16.44;96.02;63699.31;5104347;28;20465;-78
2022/06/17 00:55:47;;;;;;;14.98;12.00;;;;;;;16.40;96.38;63698.22;5104349;28;20215;-78
2022/06/17 00:58:19;;;;;;;13.70;11.50;;;;;;;16.37;96.96;63695.13;5104145;28;20211;-78
2022/06/17 01:00:48;;;;;;;15.75;11.50;;;;;;;16.29;97.23;63686.78;5104171;28;20562;-77
2022/06/17 01:03:19;;;;;;;14.25;12.13;;;;;;;16.19;97.48;63673.81;5104320;28;20199;-76
2022/06/17 01:05:50;;;;;;;16.05;13.02;;;;;;;16.12;98.51;63669.63;5104296;28;20280;-77
2022/06/17 01:11:12;;;;;;;14.30;11.88;;;;;;;16.09;98.35;63658.28;5104745;28;20257;-77
2022/06/17 01:13:42;;;;;;;13.02;11.73;;;;;;;16.06;98.30;63660.81;5105210;28;20230;-77
2022/06/17 01:16:09;;;;;;;15.23;11.23;;;;;;;16.03;97.91;63657.19;5105398;28;20218;-78
2022/06/17 01:18:41;;;;;;;12.48;11.10;;;;;;;15.99;98.26;63655.59;5105554;28;20489;-78
2022/06/17 01:21:15;;;;;;;14.05;12.23;;;;;;;15.87;99.05;63641.06;5106073;28;20216;-78
2022/06/17 01:23:44;;;;;;;12.75;11.48;;;;;;;15.83;99.13;63633.81;5105013;28;20199;-77
2022/06/17 01:26:12;;;;;;;16.02;11.43;;;;;;;15.85;99.46;63639.00;5105120;28;20455;-78
2022/06/17 01:28:39;;;;;;;14.77;11.73;;;;;;;15.88;99.73;63644.13;5105679;28;20442;-77
2022/06/17 01:31:08;;;;;;;13.00;11.48;;;;;;;15.77;100.00;63633.22;5105458;28;20219;-78
2022/06/17 01:33:39;;;;;;;13.30;11.48;;;;;;;15.82;100.00;63637.91;5105737;28;20238;-78
2022/06/17 01:36:10;;;;;;;13.15;11.65;;;;;;;15.79;100.00;63632.22;5106194;28;20536;-78
2022/06/17 01:38:39;;;;;;;13.13;11.75;;;;;;;15.80;100.00;63628.13;5106488;28;20214;-78
2022/06/17 01:41:09;;;;;;;13.95;11.40;;;;;;;15.74;100.00;63627.53;5106713;28;20222;-77
2022/06/17 01:43:41;;;;;;;16.13;12.77;;;;;;;15.67;100.00;63620.25;5106641;28;20229;-77
2022/06/17 01:46:12;;;;;;;13.30;11.98;;;;;;;15.62;100.00;63612.50;5110524;28;20235;-79
2022/06/17 01:48:44;;;;;;;17.60;12.88;;;;;;;15.61;100.00;63616.59;5112474;28;20195;-77
2022/06/17 01:51:13;;;;;;;15.18;11.73;;;;;;;15.59;100.00;63614.50;5109948;28;20238;-79
2022/06/17 01:53:45;;;;;;;13.82;12.43;;;;;;;15.50;100.00;63597.47;5104875;28;20231;-77
2022/06/17 01:56:15;;;;;;;13.85;11.73;;;;;;;15.41;100.00;63595.78;5106165;28;20215;-77
2022/06/17 01:58:49;;;;;;;13.98;12.27;;;;;;;15.38;100.00;63592.66;5104572;28;20431;-77
2022/06/17 02:01:22;;;;;;;16.70;13.35;;;;;;;15.38;100.00;63592.66;5103415;28;20257;-78
2022/06/17 02:03:53;;;;;;;15.65;12.50;;;;;;;15.39;100.00;63588.59;5090449;28;20255;-78
2022/06/17 02:06:26;;;;;;;14.40;12.90;;;;;;;15.40;100.00;63594.25;5083154;28;20199;-77
2022/06/17 02:08:53;;;;;;;13.82;11.60;;;;;;;15.39;100.00;63591.16;5082615;28;20257;-78
2022/06/17 02:11:22;;;;;;;13.70;12.15;;;;;;;15.45;100.00;63594.31;5095716;28;20398;-77
2022/06/17 02:13:49;;;;;;;15.48;13.07;;;;;;;15.47;100.00;63598.94;5102253;28;20272;-77
2022/06/17 02:16:17;;;;;;;16.40;12.80;;;;;;;15.53;100.00;63608.28;5102904;28;20562;-78
2022/06/17 02:18:45;;;;;;;17.13;12.68;;;;;;;15.48;100.00;63605.63;5103607;28;20196;-78
2022/06/17 02:21:19;;;;;;;13.25;11.82;;;;;;;15.44;100.00;63593.28;5104042;28;20226;-78
2022/06/17 02:23:46;;;;;;;15.60;12.93;;;;;;;15.41;100.00;63595.78;5103671;28;20200;-77
2022/06/17 02:26:14;;;;;;;14.38;12.57;;;;;;;15.40;100.00;63594.75;5103806;28;20445;-78
2022/06/17 02:28:44;;;;;;;21.02;13.93;;;;;;;15.41;100.00;63595.28;5103459;28;20195;-78
2022/06/17 02:31:15;;;;;;;17.02;13.10;;;;;;;15.33;100.00;63581.81;5103488;28;20275;-77
2022/06/17 02:33:48;;;;;;;16.10;13.95;;;;;;;15.02;100.00;63555.78;5103921;28;20287;-77
2022/06/17 02:36:23;;;;;;;15.30;13.20;;;;;;;14.75;100.00;63522.59;5104061;28;20408;-78
2022/06/17 02:38:52;;;;;;;16.67;13.57;;;;;;;14.85;100.00;63537.59;5103484;28;20507;-76
2022/06/17 02:41:21;;;;;;;16.70;13.70;;;;;;;14.88;100.00;63541.22;5103129;28;20230;-77
2022/06/17 02:43:57;;;;;;;19.02;14.10;;;;;;;14.98;100.00;63551.09;5105601;28;20203;-77
2022/06/17 02:46:29;;;;;;;17.35;13.63;;;;;;;14.93;100.00;63543.31;5107440;28;20183;-76
2022/06/17 02:49:00;;;;;;;16.95;13.65;;;;;;;14.92;100.00;63542.81;5106705;28;20270;-77
2022/06/17 02:51:30;;;;;;;15.40;13.77;;;;;;;14.80;100.00;63532.41;5106767;28;20206;-79
2022/06/17 02:53:59;;;;;;;15.30;13.77;;;;;;;14.92;100.00;63544.88;5107776;28;20251;-78
2022/06/17 02:56:29;;;;;;;19.92;14.75;;;;;;;14.98;100.00;63553.66;5108030;28;20203;-78
2022/06/17 02:59:07;;;;;;;19.75;15.38;;;;;;;14.78;100.00;63530.31;5107808;28;20266;-78
2022/06/17 03:01:36;;;;;;;15.48;13.82;;;;;;;15.04;100.00;63557.84;5107385;28;20320;-78
2022/06/17 03:04:08;;;;;;;17.48;14.77;;;;;;;15.01;100.00;63552.16;5107423;28;20267;-79
2022/06/17 03:06:38;;;;;;;17.80;13.18;;;;;;;15.02;100.00;63547.56;5106831;28;20550;-78
2022/06/17 03:09:18;;;;;;;15.27;13.63;;;;;;;15.07;100.00;63557.88;5108505;28;20199;-77
2022/06/17 03:11:49;;;;;;;16.00;14.30;;;;;;;15.15;100.00;63565.69;5106673;28;20200;-78
2022/06/17 03:14:18;;;;;;;17.10;14.27;;;;;;;15.15;100.00;63563.13;5107256;28;20294;-78
2022/06/17 03:16:47;;;;;;;16.55;14.55;;;;;;;15.28;100.00;63581.75;5107559;28;20196;-78
2022/06/17 03:19:14;;;;;;;16.02;13.27;;;;;;;15.32;100.00;63586.44;5106921;28;20223;-78
2022/06/17 03:21:41;;;;;;;15.63;14.02;;;;;;;15.45;100.00;63602.00;5106613;28;20196;-78
2022/06/17 03:24:15;;;;;;;15.50;13.85;;;;;;;15.53;100.00;63605.19;5107284;28;20545;-78
2022/06/17 03:26:49;;;;;;;14.43;12.95;;;;;;;15.61;100.00;63613.50;5107124;28;20527;-77
2022/06/17 03:29:24;;;;;;;14.73;12.98;;;;;;;15.68;100.00;63618.75;5107671;28;20230;-78
2022/06/17 03:31:57;;;;;;;15.02;13.52;;;;;;;15.72;100.00;63620.31;5108068;28;20199;-78
2022/06/17 03:34:28;;;;;;;14.60;12.43;;;;;;;15.82;100.00;63637.91;5107708;28;20232;-78
2022/06/17 03:36:59;;;;;;;15.93;13.15;;;;;;;15.83;100.00;63633.81;5106583;28;20215;-79
2022/06/17 03:39:35;;;;;;;14.40;12.90;;;;;;;15.91;100.00;63647.78;5106564;28;20536;-79
2022/06/17 03:42:07;;;;;;;18.10;13.10;;;;;;;16.00;100.00;63652.00;5106366;28;20232;-78
2022/06/17 03:44:39;;;;;;;14.52;13.02;;;;;;;16.10;100.00;63664.47;5106352;28;20571;-78
2022/06/17 03:47:14;;;;;;;14.65;12.55;;;;;;;16.26;100.00;63683.16;5106338;28;20567;-78
2022/06/17 03:49:44;;;;;;;14.75;12.38;;;;;;;16.40;100.00;63692.56;5106361;28;20536;-79
2022/06/17 03:52:19;;;;;;;14.57;12.48;;;;;;;16.45;100.00;63695.72;5106591;28;20484;-78
2022/06/17 03:54:46;;;;;;;14.88;12.73;;;;;;;16.50;100.00;63708.16;5106014;28;20473;-78
2022/06/17 03:57:17;;;;;;;13.98;11.75;;;;;;;16.64;100.00;63717.56;5105891;28;20191;-77
2022/06/17 03:59:49;;;;;;;16.30;12.40;;;;;;;16.73;100.00;63737.75;5105877;28;20239;-78
2022/06/17 04:02:18;;;;;;;15.52;13.00;;;;;;;16.72;100.00;63731.53;5105551;28;20227;-77
2022/06/17 04:04:50;;;;;;;14.52;12.02;;;;;;;16.77;100.00;63736.75;5106805;28;20531;-78
2022/06/17 04:07:17;;;;;;;14.00;12.60;;;;;;;16.88;100.00;63748.19;5106929;28;20245;-78
2022/06/17 04:09:46;;;;;;;16.17;12.30;;;;;;;16.84;100.00;63741.47;5105938;28;20260;-79
2022/06/17 04:12:21;;;;;;;16.98;11.60;;;;;;;16.85;100.00;63739.94;5106083;28;20195;-78
2022/06/17 04:14:55;;;;;;;13.82;12.40;;;;;;;16.74;100.00;63727.97;5106384;28;20238;-78
2022/06/17 04:17:29;;;;;;;15.68;12.50;;;;;;;16.73;100.00;63727.44;5105124;28;20211;-78
2022/06/17 04:20:21;;;;;;;14.50;11.60;;;;;;;16.75;100.00;63734.69;5105939;28;20215;-77
2022/06/17 04:22:51;;;;;;;18.70;12.70;;;;;;;16.65;100.00;63721.19;5105954;28;20196;-78
2022/06/17 04:25:24;;;;;;;14.00;12.57;;;;;;;16.48;100.00;63701.44;5106209;28;20215;-78
2022/06/17 04:27:58;;;;;;;14.55;12.93;;;;;;;16.56;100.00;63711.81;5105884;28;20206;-77
2022/06/17 04:30:33;;;;;;;17.48;13.70;;;;;;;16.64;100.00;63723.22;5105534;28;20457;-77
2022/06/17 04:33:05;;;;;;;20.95;15.23;;;;;;;16.63;100.00;63722.19;5105980;28;20232;-77
2022/06/17 04:35:35;;;;;;;19.00;14.23;;;;;;;16.75;100.00;63729.00;5105242;28;20234;-78
2022/06/17 04:38:01;;;;;;;23.20;15.43;;;;;;;16.70;100.00;63726.91;5105396;28;20233;-78
2022/06/17 04:40:37;;;;;;;22.10;15.80;;;;;;;16.68;100.00;63727.41;5104959;28;20215;-78
2022/06/17 04:43:08;;;;;;;15.65;14.05;;;;;;;16.75;100.00;63732.09;5105253;28;20212;-78
2022/06/17 04:45:37;;;;;;;23.58;15.38;;;;;;;16.85;100.00;63739.41;5105311;28;20239;-77
2022/06/17 04:48:04;;;;;;;17.60;15.25;;;;;;;16.87;100.00;63744.06;5105126;28;20203;-78
2022/06/17 04:50:31;;;;;;;17.23;15.45;;;;;;;16.86;100.00;63743.03;5104899;28;20398;-78
2022/06/17 04:52:58;;;;;;;20.38;14.05;;;;;;;17.03;100.00;63765.88;5105180;28;20224;-77
2022/06/17 04:55:29;;;;;;;26.95;15.52;;;;;;;17.06;100.00;63763.84;5105898;28;20239;-78
2022/06/17 04:57:57;;;;;;;17.17;14.07;;;;;;;17.18;100.00;63776.88;5107164;28;20405;-78
2022/06/17 05:00:26;;;;;;;14.10;12.70;;;;;;;17.25;100.00;63788.78;5108636;28;20226;-78
2022/06/17 05:02:55;;;;;;;15.13;13.15;;;;;;;17.33;100.00;63797.63;5108357;28;20196;-77
2022/06/17 05:05:28;;;;;;;14.80;13.15;;;;;;;17.33;100.00;63797.63;5105534;28;20219;-77
2022/06/17 05:07:57;;;;;;;18.30;13.88;;;;;;;17.51;100.00;63815.34;5105199;28;20381;-76
2022/06/17 05:10:27;;;;;;;17.85;13.35;;;;;;;17.80;100.00;63837.81;5105168;28;20249;-77
2022/06/17 05:12:59;;;;;;;13.98;12.02;;;;;;;17.84;100.00;63847.66;5105339;28;20200;-78
2022/06/17 05:15:26;;;;;;;16.55;13.27;;;;;;;17.97;98.61;63860.66;5104576;28;20295;-79
2022/06/17 05:17:56;;;;;;;16.63;11.88;;;;;;;18.18;97.57;63883.06;5104402;28;20199;-78
2022/06/17 05:20:24;;;;;;;14.18;12.57;;;;;;;18.22;95.83;63887.22;5104820;28;20265;-77
2022/06/17 05:22:56;;;;;;;20.27;13.18;;;;;;;18.23;97.39;63887.75;5105461;28;20195;-79
2022/06/17 05:25:26;;;;;;;13.55;12.05;;;;;;;18.57;96.71;63914.97;5105341;28;20222;-78
2022/06/17 05:27:52;;;;;;;12.98;11.55;;;;;;;18.74;92.65;63938.34;5104360;28;20234;-78
2022/06/17 05:30:20;;;;;;;13.80;12.50;;;;;;;18.36;93.43;63891.00;5104775;28;20411;-78
2022/06/17 05:32:50;;;;;;;14.50;12.98;;;;;;;18.41;95.30;63904.47;5104738;28;20195;-78
2022/06/17 05:35:19;;;;;;;13.70;11.63;;;;;;;18.62;94.81;63925.84;5104931;28;20291;-78
2022/06/17 05:37:47;;;;;;;17.15;11.98;;;;;;;18.85;91.88;63952.41;5105086;28;20206;-78
2022/06/17 05:40:14;;;;;;;13.32;12.00;;;;;;;18.79;90.79;63945.63;5104671;28;20215;-78
2022/06/17 05:42:43;;;;;;;16.58;12.65;;;;;;;18.94;90.50;63956.63;5105158;28;20219;-77
2022/06/17 05:45:16;;;;;;;12.43;11.20;;;;;;;19.17;90.07;63980.59;5104886;28;20407;-78
2022/06/17 05:47:43;;;;;;;14.65;10.73;;;;;;;19.17;89.12;63985.25;5104660;28;20198;-78
2022/06/17 05:50:11;;;;;;;16.17;11.50;;;;;;;19.29;88.09;63992.59;5105063;28;20237;-78
2022/06/17 05:52:49;;;;;;;12.18;10.98;;;;;;;19.36;86.60;64005.09;5104863;28;20203;-78
2022/06/17 05:55:16;;;;;;;14.18;11.60;;;;;;;19.57;88.33;64018.72;5104761;28;20245;-78
2022/06/17 05:57:43;;;;;;;14.10;11.80;;;;;;;19.40;88.71;64006.66;5104894;28;20199;-78
2022/06/17 06:00:12;;;;;;;16.88;12.40;;;;;;;19.37;88.87;64006.13;5105180;28;20228;-77
2022/06/17 06:02:39;;;;;;;15.48;12.65;;;;;;;19.45;90.32;64014.97;5104979;28;20400;-78
2022/06/17 06:05:08;;;;;;;13.35;12.00;;;;;;;19.46;90.64;64015.50;5104465;28;20222;-78
2022/06/17 06:07:35;;;;;;;16.27;10.90;;;;;;;19.70;87.33;64034.84;5104119;28;20358;-79
2022/06/17 06:10:03;;;;;;;17.23;11.13;;;;;;;19.62;85.17;64029.09;5104267;28;20278;-78
2022/06/17 06:15:12;;;;;;;12.35;10.93;;;;;;;19.94;84.19;64065.06;5103748;28;20223;-77
2022/06/17 06:17:39;;;;;;;15.13;12.38;;;;;;;19.96;87.50;64062.50;5107471;28;20254;-80
2022/06/17 06:20:07;;;;;;;16.58;10.32;;;;;;;20.00;83.41;64066.66;5108891;28;20407;-78
2022/06/17 06:22:35;;;;;;;13.70;10.05;;;;;;;20.15;83.85;64087.50;5109532;28;20219;-77
2022/06/17 06:25:03;;;;;;;11.55;10.35;;;;;;;20.17;81.00;64089.06;5109329;28;20219;-78
2022/06/17 06:27:30;;;;;;;13.35;11.23;;;;;;;19.82;83.40;64052.53;5108180;28;20192;-79
2022/06/17 06:29:57;;;;;;;11.98;10.82;;;;;;;19.80;84.07;64048.38;5108287;28;20215;-78
2022/06/17 06:32:24;;;;;;;14.73;10.73;;;;;;;19.91;85.77;64059.34;5108853;28;20206;-78
2022/06/17 06:34:52;;;;;;;11.50;10.38;;;;;;;20.00;83.77;64066.16;5107978;28;20229;-77
2022/06/17 06:37:19;;;;;;;11.57;10.38;;;;;;;20.09;81.58;64075.53;5107077;28;20554;-78
2022/06/17 06:39:47;;;;;;;14.95;10.07;;;;;;;20.30;81.79;64100.03;5107222;28;20208;-77
2022/06/17 06:42:15;;;;;;;12.32;9.38;;;;;;;20.75;80.73;64151.66;5106989;28;20527;-77
2022/06/17 06:44:43;;;;;;;15.07;9.23;;;;;;;20.82;75.91;64151.22;5107673;28;20524;-78
2022/06/17 06:47:12;;;;;;;9.80;8.75;;;;;;;20.58;76.54;64129.81;5107547;28;20199;-79
2022/06/17 06:49:39;;;;;;;11.13;8.80;;;;;;;20.59;77.70;64125.13;5107945;28;20234;-78
2022/06/17 06:52:06;;;;;;;9.50;8.57;;;;;;;20.99;73.74;64169.50;5108182;28;20192;-77
2022/06/17 06:54:33;;;;;;;9.57;8.70;;;;;;;21.20;72.60;64196.63;5108591;28;20227;-78
2022/06/17 06:57:00;;;;;;;9.35;8.45;;;;;;;21.09;72.62;64179.94;5107820;28;20200;-78
2022/06/17 06:59:29;;;;;;;9.25;8.32;;;;;;;20.91;74.07;64163.22;5107414;28;20229;-77
2022/06/17 07:01:56;;;;;;;9.27;8.20;;;;;;;21.09;73.61;64184.63;5107896;28;20195;-78
2022/06/17 07:04:23;;;;;;;9.20;8.35;;;;;;;21.25;72.19;64201.31;5107140;28;20546;-78
2022/06/17 07:06:50;;;;;;;14.18;8.57;;;;;;;21.32;72.13;64203.97;5107610;28;20545;-77
2022/06/17 07:09:17;;;;;;;9.65;7.93;;;;;;;20.93;74.81;64165.81;5107733;28;20353;-77
2022/06/17 07:11:44;;;;;;;14.23;8.15;;;;;;;20.81;76.24;64155.88;5107283;28;20214;-78
2022/06/17 07:14:10;;;;;;;11.80;7.28;;;;;;;20.94;75.35;64161.16;5107527;28;20221;-77
2022/06/17 07:16:39;;;;;;;11.35;7.65;;;;;;;21.06;76.24;64178.88;5107342;28;20226;-77
2022/06/17 07:19:10;;;;;;;9.05;7.78;;;;;;;20.83;75.39;64157.44;5107427;28;20195;-78
2022/06/17 07:21:37;;;;;;;9.55;7.28;;;;;;;20.64;74.92;64136.06;5106792;28;20250;-78
2022/06/17 07:24:04;;;;;;;11.55;8.68;;;;;;;20.71;79.16;64144.91;5107506;28;20200;-78
2022/06/17 07:26:31;;;;;;;8.68;7.78;;;;;;;20.65;78.83;64139.69;5107301;28;20191;-80
2022/06/17 07:28:58;;;;;;;11.20;8.52;;;;;;;20.86;75.76;64158.50;5107013;28;20199;-78
2022/06/17 07:31:28;;;;;;;9.55;7.47;;;;;;;21.14;77.47;64185.16;5107902;28;20247;-78
2022/06/17 07:33:57;;;;;;;9.18;8.05;;;;;;;21.21;73.63;64195.06;5107352;28;20241;-78
2022/06/17 07:41:58;;;;;;;8.32;7.20;;;;;;;21.43;70.56;64217.53;5107064;28;20304;-77
2022/06/17 07:44:25;;;;;;;8.25;7.13;;;;;;;21.19;73.06;64195.56;5107928;28;20283;-78
2022/06/17 07:46:52;;;;;;;7.57;6.88;;;;;;;21.34;71.61;64208.13;5108606;28;20199;-77
2022/06/17 07:49:22;;;;;;;10.13;7.35;;;;;;;21.40;70.85;64209.72;5107550;28;20431;-78
2022/06/17 07:51:50;;;;;;;10.43;6.88;;;;;;;21.26;71.49;64197.19;5109535;28;20187;-78
2022/06/17 07:54:18;;;;;;;10.40;6.90;;;;;;;21.52;70.63;64229.50;5109313;28;20243;-79
2022/06/17 07:56:44;;;;;;;9.75;7.03;;;;;;;21.35;69.85;64209.16;5106880;28;20428;-77
2022/06/17 07:59:12;;;;;;;12.95;7.65;;;;;;;21.28;70.83;64199.78;5107252;28;20230;-77
2022/06/17 08:01:39;;;;;;;7.90;7.13;;;;;;;21.49;71.21;64221.72;5107108;28;20192;-77
2022/06/17 08:04:06;;;;;;;8.70;6.60;;;;;;;21.62;71.01;64234.78;5107332;28;20199;-79
2022/06/17 08:06:35;;;;;;;8.43;7.32;;;;;;;21.65;70.30;64238.44;5108251;28;20199;-79
2022/06/17 08:09:03;;;;;;;8.32;7.53;;;;;;;21.68;68.99;64246.25;5108806;28;20195;-78
2022/06/17 08:11:30;;;;;;;7.30;6.60;;;;;;;21.85;68.63;64258.31;5108235;28;20197;-78
2022/06/17 08:13:57;;;;;;;11.32;7.32;;;;;;;22.03;66.98;64282.84;5107301;28;20199;-79
2022/06/17 08:16:24;;;;;;;6.90;6.40;;;;;;;22.16;67.16;64291.22;5106878;28;20233;-79
2022/06/17 08:18:51;;;;;;;10.93;6.70;;;;;;;22.12;68.72;64289.13;5106904;28;20209;-79
2022/06/17 08:21:18;;;;;;;9.68;6.82;;;;;;;22.14;66.87;64291.22;5106765;28;20222;-80
2022/06/17 08:23:47;;;;;;;8.48;7.15;;;;;;;22.30;66.03;64313.66;5102206;28;20492;-80
2022/06/17 08:26:14;;;;;;;8.93;7.35;;;;;;;22.52;65.01;64326.25;5088849;28;20219;-78
2022/06/17 08:28:41;;;;;;;11.15;7.70;;;;;;;22.63;64.09;64345.56;5085346;28;20200;-78
2022/06/17 08:31:08;;;;;;;7.72;7.05;;;;;;;22.62;64.42;64341.41;5086870;28;20220;-78
2022/06/17 08:33:35;;;;;;;10.25;6.85;;;;;;;22.61;64.99;64342.94;5105476;28;20213;-77
2022/06/17 08:36:07;;;;;;;10.35;7.57;;;;;;;22.74;63.86;64353.97;5104898;28;20239;-78
2022/06/17 08:38:38;;;;;;;13.15;7.68;;;;;;;22.35;65.36;64313.69;5105446;28;20199;-77
2022/06/17 08:41:15;;;;;;;14.38;7.40;;;;;;;22.61;66.21;64342.94;5105260;28;20246;-77
2022/06/17 08:43:58;;;;;;;9.75;7.57;;;;;;;22.78;62.80;64356.06;5105032;28;20454;-78
2022/06/17 08:46:43;;;;;;;10.60;7.43;;;;;;;23.00;61.81;64381.16;5106321;28;20184;-77
2022/06/17 08:49:35;;;;;;;10.18;7.60;;;;;;;23.03;67.01;64386.88;5106201;28;20195;-78
2022/06/17 08:52:19;;;;;;;8.43;6.63;;;;;;;23.17;62.66;64398.94;5105660;28;20183;-77
2022/06/17 08:54:55;;;;;;;7.53;6.82;;;;;;;23.43;64.01;64428.75;5105718;28;20207;-77
2022/06/17 08:57:29;;;;;;;9.52;7.97;;;;;;;23.61;62.87;64444.97;5105828;28;20237;-77
2022/06/17 09:00:14;;;;;;;12.55;7.55;;;;;;;23.15;60.48;64398.91;5105143;28;20222;-77
2022/06/17 09:02:59;;;;;;;10.52;8.15;;;;;;;23.45;62.25;64430.81;5105151;28;20196;-78
2022/06/17 09:05:41;;;;;;;7.15;6.45;;;;;;;23.45;56.78;64428.22;5105650;28;20219;-78
2022/06/17 09:08:24;;;;;;;7.93;7.15;;;;;;;23.62;56.90;64446.03;5105675;28;20293;-76
2022/06/17 09:11:03;;;;;;;10.80;7.32;;;;;;;23.78;59.78;64462.25;5104964;28;20215;-78
2022/06/17 09:13:44;;;;;;;8.27;7.47;;;;;;;23.74;59.96;64455.97;5105036;28;20195;-78
2022/06/17 09:16:20;;;;;;;8.20;7.10;;;;;;;23.67;59.31;64448.66;5104639;28;20250;-77
2022/06/17 09:18:55;;;;;;;7.55;6.88;;;;;;;23.87;56.42;64474.25;5104751;28;20191;-78
2022/06/17 09:21:26;;;;;;;8.20;7.50;;;;;;;24.06;54.81;64491.56;5104602;28;20377;-78
2022/06/17 09:23:56;;;;;;;7.82;6.80;;;;;;;23.79;57.17;64463.28;5104599;28;20218;-77
2022/06/17 09:26:32;;;;;;;8.63;6.93;;;;;;;23.86;56.34;64471.13;5104469;28;20270;-77
2022/06/17 09:29:08;;;;;;;9.80;7.50;;;;;;;24.09;54.18;64492.09;5104319;28;20203;-78
2022/06/17 09:31:39;;;;;;;9.82;6.65;;;;;;;24.25;55.22;64513.53;5104821;28;20183;-78
2022/06/17 09:34:15;;;;;;;10.55;7.50;;;;;;;24.23;56.05;64511.44;5104415;28;20210;-77
2022/06/17 09:36:50;;;;;;;8.73;7.82;;;;;;;24.34;57.53;64522.94;5104700;28;20287;-79
2022/06/17 09:39:23;;;;;;;10.45;8.27;;;;;;;24.16;54.76;64501.50;5104498;28;20226;-77
2022/06/17 09:41:54;;;;;;;8.38;7.45;;;;;;;24.10;55.34;64492.63;5105093;28;20230;-78
2022/06/17 09:44:29;;;;;;;8.75;7.85;;;;;;;24.38;57.13;64527.13;5103940;28;20288;-78
2022/06/17 09:47:04;;;;;;;10.70;7.75;;;;;;;24.54;56.36;64544.41;5104743;28;20183;-78
2022/06/17 09:49:38;;;;;;;11.63;7.32;;;;;;;24.54;56.97;64543.91;5104280;28;20222;-77
2022/06/17 09:52:09;;;;;;;8.75;6.97;;;;;;;24.58;52.82;64542.88;5104667;28;20201;-77
2022/06/17 09:54:43;;;;;;;10.60;7.10;;;;;;;24.74;53.51;64565.38;5106068;28;20805;-78
2022/06/17 09:57:14;;;;;;;8.02;6.68;;;;;;;24.89;55.80;64577.94;5106158;28;20221;-78
2022/06/17 09:59:46;;;;;;;7.82;7.05;;;;;;;24.44;52.27;64533.94;5105316;28;20380;-76
2022/06/17 10:02:22;;;;;;;10.30;6.38;;;;;;;24.19;51.66;64502.56;5105732;28;20193;-77
2022/06/17 10:04:51;;;;;;;12.32;6.78;;;;;;;24.34;51.19;64520.88;5105776;28;20430;-78
2022/06/17 10:07:29;;;;;;;7.35;6.60;;;;;;;24.49;53.48;64538.66;5104144;28;20203;-76
2022/06/17 10:10:10;;;;;;;8.15;7.38;;;;;;;24.52;51.78;64537.09;5104402;28;20238;-77
2022/06/17 10:12:52;;;;;;;6.32;5.75;;;;;;;24.82;47.05;64570.63;5107359;28;20252;-78
2022/06/17 10:15:39;;;;;;;7.13;6.53;;;;;;;24.69;49.23;64557.53;5103594;28;20451;-77
2022/06/17 10:18:35;;;;;;;7.47;6.78;;;;;;;24.69;48.19;64559.63;5103581;28;20226;-76
2022/06/17 10:21:17;;;;;;;5.20;4.70;;;;;;;24.61;46.71;64548.63;5103219;28;20250;-78
2022/06/17 10:23:55;;;;;;;6.38;4.82;;;;;;;24.85;43.33;64571.69;5103547;28;20199;-77
2022/06/17 10:26:33;;;;;;;6.13;4.00;;;;;;;24.77;43.84;64570.59;5103684;28;20195;-77
2022/06/17 10:29:22;;;;;;;4.68;4.22;;;;;;;24.97;42.99;64589.47;5105995;28;20487;-78
2022/06/17 10:31:51;;;;;;;4.05;3.83;;;;;;;24.87;42.21;64578.47;5104778;28;20187;-78
2022/06/17 10:34:22;;;;;;;4.32;4.03;;;;;;;24.83;38.74;64572.19;5104171;28;20226;-78
2022/06/17 10:36:54;;;;;;;6.53;5.95;;;;;;;24.62;46.12;64552.28;5103818;28;20249;-77
2022/06/17 10:39:24;;;;;;;6.60;5.30;;;;;;;24.80;44.18;64568.53;5104696;28;20219;-78
2022/06/17 10:41:52;;;;;;;6.47;5.25;;;;;;;25.16;43.36;64606.25;5105747;28;20202;-77
2022/06/17 10:44:24;;;;;;;5.55;5.15;;;;;;;25.37;42.80;64627.75;5104648;28;20258;-79
2022/06/17 10:46:59;;;;;;;6.13;5.63;;;;;;;25.61;41.54;64658.63;5105064;28;20195;-78
2022/06/17 10:49:33;;;;;;;9.07;4.68;;;;;;;25.78;41.70;64671.22;5105774;28;20269;-78
2022/06/17 10:52:04;;;;;;;6.43;5.22;;;;;;;26.03;39.95;64696.91;5103237;28;20199;-78
2022/06/17 10:54:34;;;;;;;5.00;4.70;;;;;;;26.27;39.81;64724.16;5103781;28;20219;-77
2022/06/17 10:57:06;;;;;;;4.93;4.55;;;;;;;25.92;39.17;64688.00;5102979;28;20234;-78
2022/06/17 10:59:36;;;;;;;6.03;4.05;;;;;;;26.10;38.58;64710.00;5103349;28;20215;-77
2022/06/17 11:02:05;;;;;;;5.57;4.85;;;;;;;25.45;39.37;64636.66;5102595;28;20191;-77
2022/06/17 11:04:34;;;;;;;4.68;4.38;;;;;;;25.13;38.78;64606.22;5104997;28;20215;-77
2022/06/17 11:07:05;;;;;;;6.35;4.03;;;;;;;25.11;37.09;64603.59;5106556;28;20195;-76
2022/06/17 11:09:38;;;;;;;3.92;3.72;;;;;;;25.36;37.62;64629.81;5106589;28;20287;-77
2022/06/17 11:12:16;;;;;;;4.78;4.38;;;;;;;25.59;38.36;64651.31;5107653;28;20218;-78
2022/06/17 11:14:52;;;;;;;6.35;4.88;;;;;;;25.89;39.21;64679.59;5109556;28;20465;-77
2022/06/17 11:17:27;;;;;;;5.00;4.65;;;;;;;25.77;39.37;64672.25;5110063;28;20488;-77
2022/06/17 11:19:58;;;;;;;4.65;4.35;;;;;;;25.74;39.12;64661.28;5108229;28;20215;-78
2022/06/17 11:22:33;;;;;;;4.82;4.20;;;;;;;25.70;37.88;64660.22;5107882;28;20256;-78
2022/06/17 11:25:05;;;;;;;4.90;4.50;;;;;;;25.93;39.10;64683.81;5107414;28;20256;-78
2022/06/17 11:27:36;;;;;;;4.82;4.40;;;;;;;26.34;37.91;64726.81;5108544;28;20183;-77
2022/06/17 11:30:26;;;;;;;5.05;4.65;;;;;;;26.43;37.83;64740.94;5107652;28;20234;-78
2022/06/17 11:32:57;;;;;;;5.35;5.05;;;;;;;26.74;37.73;64768.25;5107969;28;20225;-78
2022/06/17 11:35:37;;;;;;;7.28;4.90;;;;;;;26.59;38.57;64758.25;5107197;28;20275;-77
2022/06/17 11:38:10;;;;;;;5.93;5.43;;;;;;;27.07;38.05;64806.00;5107226;28;20234;-78
2022/06/17 11:40:50;;;;;;;9.07;6.45;;;;;;;27.75;38.42;64878.94;5107456;28;20215;-77
2022/06/17 11:43:33;;;;;;;6.10;5.45;;;;;;;27.22;40.75;64824.34;5107356;28;20230;-77
2022/06/17 11:46:08;;;;;;;7.18;6.10;;;;;;;26.42;43.43;64739.91;5107001;28;20458;-77
2022/06/17 11:48:41;;;;;;;11.57;6.82;;;;;;;26.29;44.87;64724.19;5107614;28;20490;-78
2022/06/17 11:51:12;;;;;;;8.32;7.18;;;;;;;25.72;44.70;64664.94;5107764;28;20211;-77